sensor_id;sensor_type;location;lat;lon;timestamp;P1;durP1;ratioP1;P2;durP2;ratioP2
8544;SDS011;4310;51.054;6.994;2022-07-24T00:00:57;18.07;;;16.87;;
8544;SDS011;4310;51.054;6.994;2022-07-24T00:02:01;20.35;;;19.05;;
8544;SDS011;4310;51.054;6.994;2022-07-24T00:03:05;20.88;;;19.60;;
8544;SDS011;4310;51.054;6.994;2022-07-24T00:04:08;19.62;;;18.32;;
8544;SDS011;4310;51.054;6.994;2022-07-24T00:05:12;18.42;;;17.27;;
8544;SDS011;4310;51.054;6.994;2022-07-24T00:06:16;18.35;;;17.23;;
8544;SDS011;4310;51.054;6.994;2022-07-24T00:07:20;19.67;;;18.42;;
8544;SDS011;4310;51.054;6.994;2022-07-24T00:08:24;17.85;;;16.75;;
8544;SDS011;4310;51.054;6.994;2022-07-24T00:10:39;18.90;;;17.45;;
8544;SDS011;4310;51.054;6.994;2022-07-24T00:11:43;19.15;;;17.98;;
8544;SDS011;4310;51.054;6.994;2022-07-24T00:12:47;20.00;;;18.67;;
8544;SDS011;4310;51.054;6.994;2022-07-24T00:13:52;20.62;;;19.32;;
8544;SDS011;4310;51.054;6.994;2022-07-24T00:14:56;20.05;;;18.60;;
8544;SDS011;4310;51.054;6.994;2022-07-24T00:15:59;21.27;;;19.90;;
8544;SDS011;4310;51.054;6.994;2022-07-24T00:17:03;21.07;;;19.85;;
8544;SDS011;4310;51.054;6.994;2022-07-24T00:19:18;22.27;;;20.62;;
8544;SDS011;4310;51.054;6.994;2022-07-24T00:20:22;19.32;;;18.23;;
8544;SDS011;4310;51.054;6.994;2022-07-24T00:21:26;21.70;;;20.40;;
8544;SDS011;4310;51.054;6.994;2022-07-24T00:22:30;21.70;;;20.40;;
8544;SDS011;4310;51.054;6.994;2022-07-24T00:23:34;21.87;;;20.48;;
8544;SDS011;4310;51.054;6.994;2022-07-24T00:24:37;19.77;;;18.48;;
8544;SDS011;4310;51.054;6.994;2022-07-24T00:25:42;19.90;;;18.70;;
8544;SDS011;4310;51.054;6.994;2022-07-24T00:26:46;19.62;;;18.30;;
8544;SDS011;4310;51.054;6.994;2022-07-24T00:27:50;18.35;;;17.32;;
8544;SDS011;4310;51.054;6.994;2022-07-24T00:28:53;18.62;;;17.32;;
8544;SDS011;4310;51.054;6.994;2022-07-24T00:29:57;17.67;;;16.45;;
8544;SDS011;4310;51.054;6.994;2022-07-24T00:32:12;16.32;;;15.23;;
8544;SDS011;4310;51.054;6.994;2022-07-24T00:33:16;17.17;;;15.90;;
8544;SDS011;4310;51.054;6.994;2022-07-24T00:34:20;17.05;;;15.95;;
8544;SDS011;4310;51.054;6.994;2022-07-24T00:36:36;17.42;;;15.95;;
8544;SDS011;4310;51.054;6.994;2022-07-24T00:37:39;16.60;;;15.50;;
8544;SDS011;4310;51.054;6.994;2022-07-24T00:38:43;16.30;;;15.08;;
8544;SDS011;4310;51.054;6.994;2022-07-24T00:39:48;16.52;;;15.53;;
8544;SDS011;4310;51.054;6.994;2022-07-24T00:40:51;17.57;;;16.27;;
8544;SDS011;4310;51.054;6.994;2022-07-24T00:43:07;18.33;;;17.03;;
8544;SDS011;4310;51.054;6.994;2022-07-24T00:45:22;16.37;;;15.23;;
8544;SDS011;4310;51.054;6.994;2022-07-24T00:46:26;16.93;;;15.72;;
8544;SDS011;4310;51.054;6.994;2022-07-24T00:47:30;15.20;;;14.03;;
8544;SDS011;4310;51.054;6.994;2022-07-24T00:48:34;14.68;;;13.70;;
8544;SDS011;4310;51.054;6.994;2022-07-24T00:49:38;14.87;;;13.75;;
8544;SDS011;4310;51.054;6.994;2022-07-24T00:51:53;14.07;;;13.05;;
8544;SDS011;4310;51.054;6.994;2022-07-24T00:52:57;13.13;;;12.23;;
8544;SDS011;4310;51.054;6.994;2022-07-24T00:54:01;13.62;;;12.58;;
8544;SDS011;4310;51.054;6.994;2022-07-24T00:55:07;12.85;;;11.90;;
8544;SDS011;4310;51.054;6.994;2022-07-24T00:57:22;16.07;;;14.98;;
8544;SDS011;4310;51.054;6.994;2022-07-24T00:58:26;14.73;;;13.62;;
8544;SDS011;4310;51.054;6.994;2022-07-24T00:59:30;15.15;;;14.00;;
8544;SDS011;4310;51.054;6.994;2022-07-24T01:00:34;14.55;;;13.45;;
8544;SDS011;4310;51.054;6.994;2022-07-24T01:01:37;15.15;;;14.00;;
8544;SDS011;4310;51.054;6.994;2022-07-24T01:02:41;14.60;;;13.70;;
8544;SDS011;4310;51.054;6.994;2022-07-24T01:03:45;15.08;;;13.93;;
8544;SDS011;4310;51.054;6.994;2022-07-24T01:04:49;14.23;;;13.22;;
8544;SDS011;4310;51.054;6.994;2022-07-24T01:05:53;14.35;;;13.45;;
8544;SDS011;4310;51.054;6.994;2022-07-24T01:08:08;15.30;;;14.20;;
8544;SDS011;4310;51.054;6.994;2022-07-24T01:09:12;16.85;;;15.55;;
8544;SDS011;4310;51.054;6.994;2022-07-24T01:10:16;16.37;;;15.23;;
8544;SDS011;4310;51.054;6.994;2022-07-24T01:11:20;18.48;;;17.27;;
8544;SDS011;4310;51.054;6.994;2022-07-24T01:12:24;18.77;;;17.67;;
8544;SDS011;4310;51.054;6.994;2022-07-24T01:13:29;18.65;;;17.45;;
8544;SDS011;4310;51.054;6.994;2022-07-24T01:14:33;17.50;;;16.23;;
8544;SDS011;4310;51.054;6.994;2022-07-24T01:15:37;18.20;;;17.10;;
8544;SDS011;4310;51.054;6.994;2022-07-24T01:16:41;18.10;;;16.75;;
8544;SDS011;4310;51.054;6.994;2022-07-24T01:17:45;18.05;;;17.05;;
8544;SDS011;4310;51.054;6.994;2022-07-24T01:18:49;17.00;;;16.00;;
8544;SDS011;4310;51.054;6.994;2022-07-24T01:19:53;18.60;;;17.52;;
8544;SDS011;4310;51.054;6.994;2022-07-24T01:20:57;18.80;;;17.70;;
8544;SDS011;4310;51.054;6.994;2022-07-24T01:22:01;18.95;;;17.85;;
8544;SDS011;4310;51.054;6.994;2022-07-24T01:24:16;17.20;;;16.20;;
8544;SDS011;4310;51.054;6.994;2022-07-24T01:25:20;18.77;;;17.60;;
8544;SDS011;4310;51.054;6.994;2022-07-24T01:26:24;17.92;;;16.82;;
8544;SDS011;4310;51.054;6.994;2022-07-24T01:27:27;18.42;;;17.23;;
8544;SDS011;4310;51.054;6.994;2022-07-24T01:28:31;17.65;;;16.55;;
8544;SDS011;4310;51.054;6.994;2022-07-24T01:29:35;18.32;;;17.23;;
8544;SDS011;4310;51.054;6.994;2022-07-24T01:30:39;19.02;;;17.85;;
8544;SDS011;4310;51.054;6.994;2022-07-24T01:31:43;19.23;;;18.00;;
8544;SDS011;4310;51.054;6.994;2022-07-24T01:32:47;18.27;;;16.97;;
8544;SDS011;4310;51.054;6.994;2022-07-24T01:33:50;19.02;;;17.92;;
8544;SDS011;4310;51.054;6.994;2022-07-24T01:34:54;18.00;;;16.90;;
8544;SDS011;4310;51.054;6.994;2022-07-24T01:35:58;19.02;;;17.82;;
8544;SDS011;4310;51.054;6.994;2022-07-24T01:38:13;18.20;;;16.97;;
8544;SDS011;4310;51.054;6.994;2022-07-24T01:39:17;19.07;;;17.67;;
8544;SDS011;4310;51.054;6.994;2022-07-24T01:40:21;20.27;;;19.00;;
8544;SDS011;4310;51.054;6.994;2022-07-24T01:41:25;19.60;;;18.40;;
8544;SDS011;4310;51.054;6.994;2022-07-24T01:42:29;21.85;;;20.48;;
8544;SDS011;4310;51.054;6.994;2022-07-24T01:43:32;22.62;;;21.33;;
8544;SDS011;4310;51.054;6.994;2022-07-24T01:44:36;24.05;;;22.48;;
8544;SDS011;4310;51.054;6.994;2022-07-24T01:45:40;24.27;;;22.77;;
8544;SDS011;4310;51.054;6.994;2022-07-24T01:46:44;24.00;;;22.50;;
8544;SDS011;4310;51.054;6.994;2022-07-24T01:48:59;20.80;;;19.50;;
8544;SDS011;4310;51.054;6.994;2022-07-24T01:51:15;21.35;;;20.05;;
8544;SDS011;4310;51.054;6.994;2022-07-24T01:52:18;23.27;;;21.87;;
8544;SDS011;4310;51.054;6.994;2022-07-24T01:53:22;24.12;;;22.73;;
8544;SDS011;4310;51.054;6.994;2022-07-24T01:54:26;23.73;;;22.32;;
8544;SDS011;4310;51.054;6.994;2022-07-24T01:55:30;23.52;;;22.13;;
8544;SDS011;4310;51.054;6.994;2022-07-24T01:56:34;22.67;;;21.17;;
8544;SDS011;4310;51.054;6.994;2022-07-24T01:57:37;23.42;;;21.93;;
8544;SDS011;4310;51.054;6.994;2022-07-24T01:58:41;23.95;;;22.55;;
8544;SDS011;4310;51.054;6.994;2022-07-24T01:59:45;24.65;;;22.98;;
8544;SDS011;4310;51.054;6.994;2022-07-24T02:00:49;21.30;;;20.10;;
8544;SDS011;4310;51.054;6.994;2022-07-24T02:01:53;21.57;;;20.17;;
8544;SDS011;4310;51.054;6.994;2022-07-24T02:04:08;20.45;;;19.15;;
8544;SDS011;4310;51.054;6.994;2022-07-24T02:05:13;20.12;;;18.90;;
8544;SDS011;4310;51.054;6.994;2022-07-24T02:06:17;20.40;;;18.98;;
8544;SDS011;4310;51.054;6.994;2022-07-24T02:07:21;19.73;;;18.37;;
8544;SDS011;4310;51.054;6.994;2022-07-24T02:08:25;19.23;;;18.12;;
8544;SDS011;4310;51.054;6.994;2022-07-24T02:09:29;18.77;;;17.52;;
8544;SDS011;4310;51.054;6.994;2022-07-24T02:11:44;19.07;;;17.85;;
8544;SDS011;4310;51.054;6.994;2022-07-24T02:12:48;18.37;;;17.17;;
8544;SDS011;4310;51.054;6.994;2022-07-24T02:15:04;15.43;;;14.45;;
8544;SDS011;4310;51.054;6.994;2022-07-24T02:16:08;16.15;;;15.15;;
8544;SDS011;4310;51.054;6.994;2022-07-24T02:17:12;15.78;;;14.78;;
8544;SDS011;4310;51.054;6.994;2022-07-24T02:18:16;14.80;;;13.80;;
8544;SDS011;4310;51.054;6.994;2022-07-24T02:19:19;13.28;;;12.20;;
8544;SDS011;4310;51.054;6.994;2022-07-24T02:20:25;14.30;;;13.50;;
8544;SDS011;4310;51.054;6.994;2022-07-24T02:21:29;14.45;;;13.48;;
8544;SDS011;4310;51.054;6.994;2022-07-24T02:22:32;13.72;;;12.82;;
8544;SDS011;4310;51.054;6.994;2022-07-24T02:23:37;14.38;;;13.28;;
8544;SDS011;4310;51.054;6.994;2022-07-24T02:24:40;13.03;;;12.03;;
8544;SDS011;4310;51.054;6.994;2022-07-24T02:25:45;12.40;;;11.45;;
8544;SDS011;4310;51.054;6.994;2022-07-24T02:26:49;13.87;;;12.97;;
8544;SDS011;4310;51.054;6.994;2022-07-24T02:27:53;13.03;;;12.15;;
8544;SDS011;4310;51.054;6.994;2022-07-24T02:28:57;13.32;;;12.43;;
8544;SDS011;4310;51.054;6.994;2022-07-24T02:30:01;13.40;;;12.30;;
8544;SDS011;4310;51.054;6.994;2022-07-24T02:31:04;13.55;;;12.65;;
8544;SDS011;4310;51.054;6.994;2022-07-24T02:33:20;16.17;;;15.08;;
8544;SDS011;4310;51.054;6.994;2022-07-24T02:34:23;16.35;;;15.15;;
8544;SDS011;4310;51.054;6.994;2022-07-24T02:35:27;15.95;;;14.95;;
8544;SDS011;4310;51.054;6.994;2022-07-24T02:36:31;16.23;;;15.32;;
8544;SDS011;4310;51.054;6.994;2022-07-24T02:37:35;16.05;;;15.05;;
8544;SDS011;4310;51.054;6.994;2022-07-24T02:38:39;17.73;;;16.52;;
8544;SDS011;4310;51.054;6.994;2022-07-24T02:39:43;18.85;;;17.55;;
8544;SDS011;4310;51.054;6.994;2022-07-24T02:40:47;20.08;;;18.90;;
8544;SDS011;4310;51.054;6.994;2022-07-24T02:41:51;20.08;;;18.82;;
8544;SDS011;4310;51.054;6.994;2022-07-24T02:44:06;22.85;;;21.55;;
8544;SDS011;4310;51.054;6.994;2022-07-24T02:45:10;24.72;;;23.30;;
8544;SDS011;4310;51.054;6.994;2022-07-24T02:46:15;25.12;;;23.73;;
8544;SDS011;4310;51.054;6.994;2022-07-24T02:47:18;25.73;;;24.37;;
8544;SDS011;4310;51.054;6.994;2022-07-24T02:48:22;26.65;;;24.98;;
8544;SDS011;4310;51.054;6.994;2022-07-24T02:49:26;26.45;;;24.82;;
8544;SDS011;4310;51.054;6.994;2022-07-24T02:51:41;25.37;;;23.98;;
8544;SDS011;4310;51.054;6.994;2022-07-24T02:53:56;26.05;;;24.32;;
8544;SDS011;4310;51.054;6.994;2022-07-24T02:55:00;28.42;;;27.02;;
8544;SDS011;4310;51.054;6.994;2022-07-24T02:57:15;27.22;;;25.72;;
8544;SDS011;4310;51.054;6.994;2022-07-24T02:58:19;26.90;;;25.40;;
8544;SDS011;4310;51.054;6.994;2022-07-24T02:59:23;28.52;;;27.02;;
8544;SDS011;4310;51.054;6.994;2022-07-24T03:00:27;29.75;;;28.15;;
8544;SDS011;4310;51.054;6.994;2022-07-24T03:01:30;30.48;;;28.87;;
8544;SDS011;4310;51.054;6.994;2022-07-24T03:02:34;33.23;;;31.62;;
8544;SDS011;4310;51.054;6.994;2022-07-24T03:03:38;34.05;;;32.15;;
8544;SDS011;4310;51.054;6.994;2022-07-24T03:04:42;31.80;;;30.10;;
8544;SDS011;4310;51.054;6.994;2022-07-24T03:05:45;34.35;;;32.45;;
8544;SDS011;4310;51.054;6.994;2022-07-24T03:06:49;33.40;;;31.68;;
8544;SDS011;4310;51.054;6.994;2022-07-24T03:07:53;30.05;;;28.38;;
8544;SDS011;4310;51.054;6.994;2022-07-24T03:10:10;29.90;;;28.00;;
8544;SDS011;4310;51.054;6.994;2022-07-24T03:11:15;29.05;;;27.40;;
8544;SDS011;4310;51.054;6.994;2022-07-24T03:12:18;31.15;;;29.35;;
8544;SDS011;4310;51.054;6.994;2022-07-24T03:13:22;29.42;;;27.73;;
8544;SDS011;4310;51.054;6.994;2022-07-24T03:14:26;30.70;;;29.00;;
8544;SDS011;4310;51.054;6.994;2022-07-24T03:15:29;33.10;;;31.35;;
8544;SDS011;4310;51.054;6.994;2022-07-24T03:16:33;31.70;;;29.80;;
8544;SDS011;4310;51.054;6.994;2022-07-24T03:17:37;30.27;;;28.73;;
8544;SDS011;4310;51.054;6.994;2022-07-24T03:18:41;29.30;;;27.80;;
8544;SDS011;4310;51.054;6.994;2022-07-24T03:19:46;30.23;;;28.62;;
8544;SDS011;4310;51.054;6.994;2022-07-24T03:20:50;32.25;;;30.35;;
8544;SDS011;4310;51.054;6.994;2022-07-24T03:23:05;31.07;;;29.32;;
8544;SDS011;4310;51.054;6.994;2022-07-24T03:25:21;26.73;;;25.30;;
8544;SDS011;4310;51.054;6.994;2022-07-24T03:26:25;28.10;;;26.42;;
8544;SDS011;4310;51.054;6.994;2022-07-24T03:27:28;26.33;;;24.80;;
8544;SDS011;4310;51.054;6.994;2022-07-24T03:28:32;26.05;;;24.70;;
8544;SDS011;4310;51.054;6.994;2022-07-24T03:29:36;25.60;;;24.20;;
8544;SDS011;4310;51.054;6.994;2022-07-24T03:30:40;25.15;;;23.75;;
8544;SDS011;4310;51.054;6.994;2022-07-24T03:31:43;23.22;;;21.93;;
8544;SDS011;4310;51.054;6.994;2022-07-24T03:32:47;24.37;;;23.05;;
8544;SDS011;4310;51.054;6.994;2022-07-24T03:33:51;23.87;;;22.60;;
8544;SDS011;4310;51.054;6.994;2022-07-24T03:36:07;23.42;;;22.17;;
8544;SDS011;4310;51.054;6.994;2022-07-24T03:37:11;23.50;;;22.10;;
8544;SDS011;4310;51.054;6.994;2022-07-24T03:38:15;22.48;;;21.10;;
8544;SDS011;4310;51.054;6.994;2022-07-24T03:39:19;23.35;;;21.95;;
8544;SDS011;4310;51.054;6.994;2022-07-24T03:40:22;21.60;;;20.40;;
8544;SDS011;4310;51.054;6.994;2022-07-24T03:41:26;22.02;;;20.82;;
8544;SDS011;4310;51.054;6.994;2022-07-24T03:42:30;22.17;;;20.97;;
8544;SDS011;4310;51.054;6.994;2022-07-24T03:45:57;20.25;;;19.05;;
8544;SDS011;4310;51.054;6.994;2022-07-24T03:47:01;19.32;;;18.23;;
8544;SDS011;4310;51.054;6.994;2022-07-24T03:48:05;19.00;;;17.80;;
8544;SDS011;4310;51.054;6.994;2022-07-24T03:49:09;19.55;;;18.32;;
8544;SDS011;4310;51.054;6.994;2022-07-24T03:50:13;18.73;;;17.42;;
8544;SDS011;4310;51.054;6.994;2022-07-24T03:51:16;18.52;;;17.25;;
8544;SDS011;4310;51.054;6.994;2022-07-24T03:52:20;18.23;;;17.12;;
8544;SDS011;4310;51.054;6.994;2022-07-24T03:53:24;18.40;;;17.10;;
8544;SDS011;4310;51.054;6.994;2022-07-24T03:54:28;18.57;;;17.37;;
8544;SDS011;4310;51.054;6.994;2022-07-24T03:55:32;18.02;;;16.90;;
8544;SDS011;4310;51.054;6.994;2022-07-24T03:57:47;17.70;;;16.50;;
8544;SDS011;4310;51.054;6.994;2022-07-24T03:58:51;18.25;;;17.12;;
8544;SDS011;4310;51.054;6.994;2022-07-24T03:59:54;18.10;;;16.90;;
8544;SDS011;4310;51.054;6.994;2022-07-24T04:00:59;17.65;;;16.42;;
8544;SDS011;4310;51.054;6.994;2022-07-24T04:02:03;18.80;;;17.60;;
8544;SDS011;4310;51.054;6.994;2022-07-24T04:03:07;17.17;;;16.02;;
8544;SDS011;4310;51.054;6.994;2022-07-24T04:04:10;18.65;;;17.45;;
8544;SDS011;4310;51.054;6.994;2022-07-24T04:05:14;16.48;;;15.48;;
8544;SDS011;4310;51.054;6.994;2022-07-24T04:06:18;18.30;;;17.20;;
8544;SDS011;4310;51.054;6.994;2022-07-24T04:07:22;16.77;;;15.78;;
8544;SDS011;4310;51.054;6.994;2022-07-24T04:08:25;17.12;;;15.83;;
8544;SDS011;4310;51.054;6.994;2022-07-24T04:10:41;16.03;;;14.97;;
8544;SDS011;4310;51.054;6.994;2022-07-24T04:11:44;16.27;;;15.18;;
8544;SDS011;4310;51.054;6.994;2022-07-24T04:12:49;15.87;;;14.87;;
8544;SDS011;4310;51.054;6.994;2022-07-24T04:13:53;13.80;;;12.80;;
8544;SDS011;4310;51.054;6.994;2022-07-24T04:14:56;13.18;;;12.25;;
8544;SDS011;4310;51.054;6.994;2022-07-24T04:16:00;13.80;;;12.90;;
8544;SDS011;4310;51.054;6.994;2022-07-24T04:17:04;13.45;;;12.30;;
8544;SDS011;4310;51.054;6.994;2022-07-24T04:18:08;12.10;;;11.30;;
8544;SDS011;4310;51.054;6.994;2022-07-24T04:20:24;13.80;;;12.88;;
8544;SDS011;4310;51.054;6.994;2022-07-24T04:21:28;13.15;;;12.28;;
8544;SDS011;4310;51.054;6.994;2022-07-24T04:22:31;13.85;;;12.95;;
8544;SDS011;4310;51.054;6.994;2022-07-24T04:23:35;13.32;;;12.33;;
8544;SDS011;4310;51.054;6.994;2022-07-24T04:24:39;13.00;;;12.07;;
8544;SDS011;4310;51.054;6.994;2022-07-24T04:25:43;14.13;;;12.82;;
8544;SDS011;4310;51.054;6.994;2022-07-24T04:26:47;12.68;;;11.55;;
8544;SDS011;4310;51.054;6.994;2022-07-24T04:27:51;12.58;;;11.68;;
8544;SDS011;4310;51.054;6.994;2022-07-24T04:28:55;12.55;;;11.75;;
8544;SDS011;4310;51.054;6.994;2022-07-24T04:29:59;11.75;;;10.95;;
8544;SDS011;4310;51.054;6.994;2022-07-24T04:31:03;11.03;;;10.23;;
8544;SDS011;4310;51.054;6.994;2022-07-24T04:32:07;10.10;;;9.30;;
8544;SDS011;4310;51.054;6.994;2022-07-24T04:33:10;10.00;;;9.20;;
8544;SDS011;4310;51.054;6.994;2022-07-24T04:34:14;9.60;;;8.90;;
8544;SDS011;4310;51.054;6.994;2022-07-24T04:35:18;10.35;;;9.28;;
8544;SDS011;4310;51.054;6.994;2022-07-24T04:36:22;10.08;;;9.38;;
8544;SDS011;4310;51.054;6.994;2022-07-24T04:37:26;9.30;;;8.60;;
8544;SDS011;4310;51.054;6.994;2022-07-24T04:38:29;10.60;;;9.70;;
8544;SDS011;4310;51.054;6.994;2022-07-24T04:40:46;9.98;;;9.13;;
8544;SDS011;4310;51.054;6.994;2022-07-24T04:41:50;9.80;;;9.00;;
8544;SDS011;4310;51.054;6.994;2022-07-24T04:44:05;9.93;;;9.03;;
8544;SDS011;4310;51.054;6.994;2022-07-24T04:45:09;10.05;;;9.15;;
8544;SDS011;4310;51.054;6.994;2022-07-24T04:46:13;9.30;;;8.60;;
8544;SDS011;4310;51.054;6.994;2022-07-24T04:47:17;10.38;;;9.48;;
8544;SDS011;4310;51.054;6.994;2022-07-24T04:48:21;9.53;;;8.90;;
8544;SDS011;4310;51.054;6.994;2022-07-24T04:49:25;8.98;;;8.28;;
8544;SDS011;4310;51.054;6.994;2022-07-24T04:50:28;9.08;;;8.38;;
8544;SDS011;4310;51.054;6.994;2022-07-24T04:52:44;9.45;;;8.65;;
8544;SDS011;4310;51.054;6.994;2022-07-24T04:54:59;8.78;;;7.97;;
8544;SDS011;4310;51.054;6.994;2022-07-24T04:56:03;8.15;;;7.35;;
8544;SDS011;4310;51.054;6.994;2022-07-24T04:57:07;8.83;;;8.18;;
8544;SDS011;4310;51.054;6.994;2022-07-24T04:58:11;8.20;;;7.50;;
8544;SDS011;4310;51.054;6.994;2022-07-24T04:59:14;8.30;;;7.50;;
8544;SDS011;4310;51.054;6.994;2022-07-24T05:00:18;8.30;;;7.53;;
8544;SDS011;4310;51.054;6.994;2022-07-24T05:01:22;8.38;;;7.78;;
8544;SDS011;4310;51.054;6.994;2022-07-24T05:02:26;8.05;;;7.35;;
8544;SDS011;4310;51.054;6.994;2022-07-24T05:03:30;8.20;;;7.50;;
8544;SDS011;4310;51.054;6.994;2022-07-24T05:05:45;8.00;;;7.37;;
8544;SDS011;4310;51.054;6.994;2022-07-24T05:06:49;7.95;;;7.30;;
8544;SDS011;4310;51.054;6.994;2022-07-24T05:07:52;7.72;;;7.12;;
8544;SDS011;4310;51.054;6.994;2022-07-24T05:08:56;7.95;;;7.28;;
8544;SDS011;4310;51.054;6.994;2022-07-24T05:11:11;7.80;;;6.67;;
8544;SDS011;4310;51.054;6.994;2022-07-24T05:12:15;7.57;;;6.93;;
8544;SDS011;4310;51.054;6.994;2022-07-24T05:14:30;7.45;;;6.65;;
8544;SDS011;4310;51.054;6.994;2022-07-24T05:15:34;7.08;;;6.45;;
8544;SDS011;4310;51.054;6.994;2022-07-24T05:16:38;7.03;;;6.42;;
8544;SDS011;4310;51.054;6.994;2022-07-24T05:17:43;6.95;;;6.33;;
8544;SDS011;4310;51.054;6.994;2022-07-24T05:18:47;7.10;;;6.55;;
8544;SDS011;4310;51.054;6.994;2022-07-24T05:19:50;7.15;;;6.55;;
8544;SDS011;4310;51.054;6.994;2022-07-24T05:20:54;7.00;;;6.30;;
8544;SDS011;4310;51.054;6.994;2022-07-24T05:21:58;6.87;;;6.30;;
8544;SDS011;4310;51.054;6.994;2022-07-24T05:23:02;6.67;;;5.97;;
8544;SDS011;4310;51.054;6.994;2022-07-24T05:24:06;6.72;;;6.08;;
8544;SDS011;4310;51.054;6.994;2022-07-24T05:25:10;6.22;;;5.72;;
8544;SDS011;4310;51.054;6.994;2022-07-24T05:26:14;6.62;;;6.03;;
8544;SDS011;4310;51.054;6.994;2022-07-24T05:28:29;5.97;;;5.47;;
8544;SDS011;4310;51.054;6.994;2022-07-24T05:29:33;6.10;;;5.50;;
8544;SDS011;4310;51.054;6.994;2022-07-24T05:30:36;6.00;;;5.47;;
8544;SDS011;4310;51.054;6.994;2022-07-24T05:31:40;5.53;;;5.12;;
8544;SDS011;4310;51.054;6.994;2022-07-24T05:32:44;5.58;;;5.08;;
8544;SDS011;4310;51.054;6.994;2022-07-24T05:33:48;5.65;;;5.15;;
8544;SDS011;4310;51.054;6.994;2022-07-24T05:34:51;5.70;;;5.20;;
8544;SDS011;4310;51.054;6.994;2022-07-24T05:37:07;6.37;;;5.50;;
8544;SDS011;4310;51.054;6.994;2022-07-24T05:38:10;5.65;;;5.15;;
8544;SDS011;4310;51.054;6.994;2022-07-24T05:39:14;5.33;;;4.80;;
8544;SDS011;4310;51.054;6.994;2022-07-24T05:40:18;5.22;;;4.72;;
8544;SDS011;4310;51.054;6.994;2022-07-24T05:41:21;5.10;;;4.70;;
8544;SDS011;4310;51.054;6.994;2022-07-24T05:42:25;5.28;;;4.85;;
8544;SDS011;4310;51.054;6.994;2022-07-24T05:43:29;5.87;;;4.95;;
8544;SDS011;4310;51.054;6.994;2022-07-24T05:44:33;6.37;;;4.90;;
8544;SDS011;4310;51.054;6.994;2022-07-24T05:45:36;4.97;;;4.47;;
8544;SDS011;4310;51.054;6.994;2022-07-24T05:46:40;5.80;;;5.20;;
8544;SDS011;4310;51.054;6.994;2022-07-24T05:47:44;5.37;;;4.75;;
8544;SDS011;4310;51.054;6.994;2022-07-24T05:48:48;5.10;;;4.70;;
8544;SDS011;4310;51.054;6.994;2022-07-24T05:51:03;4.97;;;4.58;;
8544;SDS011;4310;51.054;6.994;2022-07-24T05:52:07;4.62;;;4.22;;
8544;SDS011;4310;51.054;6.994;2022-07-24T05:53:10;5.50;;;5.00;;
8544;SDS011;4310;51.054;6.994;2022-07-24T05:54:14;4.95;;;4.55;;
8544;SDS011;4310;51.054;6.994;2022-07-24T05:55:18;4.90;;;4.40;;
8544;SDS011;4310;51.054;6.994;2022-07-24T05:56:22;4.60;;;4.30;;
8544;SDS011;4310;51.054;6.994;2022-07-24T05:57:26;5.25;;;4.40;;
8544;SDS011;4310;51.054;6.994;2022-07-24T05:58:29;5.42;;;4.92;;
8544;SDS011;4310;51.054;6.994;2022-07-24T05:59:33;4.97;;;4.58;;
8544;SDS011;4310;51.054;6.994;2022-07-24T06:00:37;5.72;;;5.00;;
8544;SDS011;4310;51.054;6.994;2022-07-24T06:01:41;4.95;;;4.45;;
8544;SDS011;4310;51.054;6.994;2022-07-24T06:02:45;7.03;;;4.70;;
8544;SDS011;4310;51.054;6.994;2022-07-24T06:03:49;4.97;;;4.58;;
8544;SDS011;4310;51.054;6.994;2022-07-24T06:04:52;4.75;;;4.35;;
8544;SDS011;4310;51.054;6.994;2022-07-24T06:05:56;4.90;;;4.33;;
8544;SDS011;4310;51.054;6.994;2022-07-24T06:08:11;5.50;;;5.00;;
8544;SDS011;4310;51.054;6.994;2022-07-24T06:09:15;5.05;;;4.62;;
8544;SDS011;4310;51.054;6.994;2022-07-24T06:10:20;5.70;;;5.08;;
8544;SDS011;4310;51.054;6.994;2022-07-24T06:11:24;5.17;;;4.60;;
8544;SDS011;4310;51.054;6.994;2022-07-24T06:12:27;5.05;;;4.58;;
8544;SDS011;4310;51.054;6.994;2022-07-24T06:13:31;5.70;;;5.20;;
8544;SDS011;4310;51.054;6.994;2022-07-24T06:14:35;5.30;;;4.70;;
8544;SDS011;4310;51.054;6.994;2022-07-24T06:15:39;5.85;;;4.85;;
8544;SDS011;4310;51.054;6.994;2022-07-24T06:16:43;5.00;;;4.60;;
8544;SDS011;4310;51.054;6.994;2022-07-24T06:17:46;5.00;;;4.58;;
8544;SDS011;4310;51.054;6.994;2022-07-24T06:20:02;4.92;;;4.53;;
8544;SDS011;4310;51.054;6.994;2022-07-24T06:21:06;5.00;;;4.60;;
8544;SDS011;4310;51.054;6.994;2022-07-24T06:22:10;5.00;;;4.60;;
8544;SDS011;4310;51.054;6.994;2022-07-24T06:24:25;4.75;;;4.35;;
8544;SDS011;4310;51.054;6.994;2022-07-24T06:25:29;4.87;;;4.37;;
8544;SDS011;4310;51.054;6.994;2022-07-24T06:27:45;4.85;;;4.30;;
8544;SDS011;4310;51.054;6.994;2022-07-24T06:28:49;4.72;;;4.33;;
8544;SDS011;4310;51.054;6.994;2022-07-24T06:29:53;4.50;;;4.10;;
8544;SDS011;4310;51.054;6.994;2022-07-24T06:30:57;4.60;;;4.20;;
8544;SDS011;4310;51.054;6.994;2022-07-24T06:32:01;4.42;;;4.10;;
8544;SDS011;4310;51.054;6.994;2022-07-24T06:33:05;4.70;;;4.30;;
8544;SDS011;4310;51.054;6.994;2022-07-24T06:34:08;5.20;;;4.35;;
8544;SDS011;4310;51.054;6.994;2022-07-24T06:35:12;5.45;;;4.47;;
8544;SDS011;4310;51.054;6.994;2022-07-24T06:36:16;5.00;;;4.33;;
8544;SDS011;4310;51.054;6.994;2022-07-24T06:38:31;4.92;;;4.58;;
8544;SDS011;4310;51.054;6.994;2022-07-24T06:39:35;5.27;;;4.77;;
8544;SDS011;4310;51.054;6.994;2022-07-24T06:40:39;5.10;;;4.60;;
8544;SDS011;4310;51.054;6.994;2022-07-24T06:41:43;5.05;;;4.58;;
8544;SDS011;4310;51.054;6.994;2022-07-24T06:42:47;5.30;;;4.72;;
8544;SDS011;4310;51.054;6.994;2022-07-24T06:43:51;5.20;;;4.70;;
8544;SDS011;4310;51.054;6.994;2022-07-24T06:44:55;5.12;;;4.62;;
8544;SDS011;4310;51.054;6.994;2022-07-24T06:45:59;5.35;;;4.40;;
8544;SDS011;4310;51.054;6.994;2022-07-24T06:47:03;5.53;;;4.67;;
8544;SDS011;4310;51.054;6.994;2022-07-24T06:48:07;5.30;;;4.47;;
8544;SDS011;4310;51.054;6.994;2022-07-24T06:49:10;4.83;;;4.40;;
8544;SDS011;4310;51.054;6.994;2022-07-24T06:50:14;4.40;;;4.10;;
8544;SDS011;4310;51.054;6.994;2022-07-24T06:51:18;4.72;;;4.33;;
8544;SDS011;4310;51.054;6.994;2022-07-24T06:52:22;4.67;;;4.20;;
8544;SDS011;4310;51.054;6.994;2022-07-24T06:53:25;4.95;;;4.37;;
8544;SDS011;4310;51.054;6.994;2022-07-24T06:55:41;4.65;;;4.25;;
8544;SDS011;4310;51.054;6.994;2022-07-24T06:56:45;4.78;;;4.40;;
8544;SDS011;4310;51.054;6.994;2022-07-24T06:57:48;5.67;;;4.60;;
8544;SDS011;4310;51.054;6.994;2022-07-24T06:58:52;4.60;;;4.10;;
8544;SDS011;4310;51.054;6.994;2022-07-24T06:59:56;4.60;;;4.20;;
8544;SDS011;4310;51.054;6.994;2022-07-24T07:01:00;4.70;;;4.30;;
8544;SDS011;4310;51.054;6.994;2022-07-24T07:02:03;4.35;;;4.00;;
8544;SDS011;4310;51.054;6.994;2022-07-24T07:03:07;4.70;;;4.30;;
8544;SDS011;4310;51.054;6.994;2022-07-24T07:04:11;4.58;;;4.17;;
8544;SDS011;4310;51.054;6.994;2022-07-24T07:05:15;4.67;;;4.28;;
8544;SDS011;4310;51.054;6.994;2022-07-24T07:06:18;4.60;;;4.20;;
8544;SDS011;4310;51.054;6.994;2022-07-24T07:07:22;4.72;;;4.37;;
8544;SDS011;4310;51.054;6.994;2022-07-24T07:09:38;4.58;;;4.17;;
8544;SDS011;4310;51.054;6.994;2022-07-24T07:10:42;4.80;;;4.40;;
8544;SDS011;4310;51.054;6.994;2022-07-24T07:11:46;4.97;;;4.47;;
8544;SDS011;4310;51.054;6.994;2022-07-24T07:12:50;4.72;;;4.30;;
8544;SDS011;4310;51.054;6.994;2022-07-24T07:15:06;5.12;;;4.65;;
8544;SDS011;4310;51.054;6.994;2022-07-24T07:16:10;5.55;;;4.30;;
8544;SDS011;4310;51.054;6.994;2022-07-24T07:17:14;5.78;;;4.65;;
8544;SDS011;4310;51.054;6.994;2022-07-24T07:18:18;4.97;;;4.58;;
8544;SDS011;4310;51.054;6.994;2022-07-24T07:19:22;4.70;;;4.15;;
8544;SDS011;4310;51.054;6.994;2022-07-24T07:20:26;4.90;;;4.50;;
8544;SDS011;4310;51.054;6.994;2022-07-24T07:21:30;5.45;;;4.45;;
8544;SDS011;4310;51.054;6.994;2022-07-24T07:22:33;4.50;;;4.10;;
8544;SDS011;4310;51.054;6.994;2022-07-24T07:23:37;5.17;;;4.50;;
8544;SDS011;4310;51.054;6.994;2022-07-24T07:24:41;5.53;;;4.62;;
8544;SDS011;4310;51.054;6.994;2022-07-24T07:25:45;5.75;;;4.67;;
8544;SDS011;4310;51.054;6.994;2022-07-24T07:26:49;5.72;;;5.15;;